createdAt,value
2023-03-08T00:50:03.251Z,16.95
2023-03-08T00:52:56.125Z,17.16
2023-03-08T00:58:03.373Z,17.98
2023-03-08T01:00:36.778Z,17.96
2023-03-08T01:03:12.142Z,18.04
2023-03-08T01:05:46.637Z,18.82
2023-03-08T01:13:39.457Z,19.00
2023-03-08T01:21:39.408Z,19.76
2023-03-08T01:24:10.885Z,20.30
2023-03-08T01:29:19.751Z,21.62
2023-03-08T01:31:51.199Z,21.37
2023-03-08T01:34:18.810Z,21.30
2023-03-08T01:36:47.539Z,21.57
2023-03-08T01:44:34.810Z,21.38
2023-03-08T02:22:06.748Z,20.77
2023-03-08T02:24:35.433Z,21.04
2023-03-08T02:29:44.852Z,20.93
2023-03-08T02:32:12.142Z,20.51
2023-03-08T02:34:39.438Z,20.26
2023-03-08T02:37:06.770Z,19.74
2023-03-08T02:39:34.033Z,21.15
2023-03-08T02:42:01.340Z,20.29
2023-03-08T02:44:28.733Z,20.47
2023-03-08T02:46:55.992Z,20.63
2023-03-08T02:49:23.264Z,20.93
2023-03-08T02:51:50.627Z,20.19
2023-03-08T02:54:17.926Z,20.75
2023-03-08T02:56:45.199Z,20.85
2023-03-08T02:59:12.556Z,20.17
2023-03-08T03:01:39.943Z,20.26
2023-03-08T03:04:12.275Z,20.24
2023-03-08T03:06:39.761Z,20.72
2023-03-08T03:09:07.179Z,20.74
2023-03-08T03:11:34.453Z,20.54
2023-03-08T03:14:02.845Z,20.46
2023-03-08T03:16:30.205Z,20.21
2023-03-08T03:18:57.452Z,20.88
2023-03-08T03:21:24.715Z,20.49
2023-03-08T03:23:52.088Z,20.38
2023-03-08T03:26:19.385Z,19.75
2023-03-08T03:28:46.655Z,20.42
2023-03-08T03:31:14.036Z,20.33
2023-03-08T03:33:41.382Z,19.89
2023-03-08T03:36:08.974Z,20.02
2023-03-08T03:38:36.330Z,19.97
2023-03-08T03:41:03.601Z,19.64
2023-03-08T03:43:30.876Z,19.90
2023-03-08T03:45:58.231Z,20.32
2023-03-08T03:48:25.582Z,19.38
2023-03-08T03:50:52.839Z,20.09
2023-03-08T03:53:20.157Z,20.04
2023-03-08T03:55:47.418Z,19.62
2023-03-08T03:58:14.732Z,19.69
2023-03-08T04:00:50.173Z,19.87
2023-03-08T04:03:17.608Z,19.39
2023-03-08T04:05:45.688Z,20.13
2023-03-08T04:10:56.506Z,19.81
2023-03-08T04:16:00.442Z,19.68
2023-03-08T04:18:30.013Z,19.70
2023-03-08T04:21:00.308Z,19.98
2023-03-08T04:23:29.428Z,20.22
2023-03-08T04:31:25.260Z,19.44
2023-03-08T04:33:55.358Z,19.41
2023-03-08T04:36:24.610Z,19.29
2023-03-08T04:38:57.715Z,19.33
2023-03-08T04:41:26.867Z,19.52
2023-03-08T04:43:55.323Z,19.83
2023-03-08T04:49:05.690Z,19.05
2023-03-08T04:51:32.981Z,19.09
2023-03-08T04:54:02.140Z,19.65
2023-03-08T04:56:29.590Z,19.41
2023-03-08T04:59:00.650Z,19.33
2023-03-08T05:01:28.459Z,18.33
2023-03-08T05:03:58.769Z,19.14
2023-03-08T05:06:29.430Z,19.24
2023-03-08T05:08:56.929Z,19.29
2023-03-08T05:11:24.254Z,19.18
2023-03-08T05:13:52.342Z,18.74
2023-03-08T05:16:25.670Z,18.70
2023-03-08T05:18:53.835Z,18.60
2023-03-08T05:21:21.790Z,18.72
2023-03-08T05:23:52.425Z,19.08
2023-03-08T05:26:20.843Z,19.16
2023-03-08T05:31:23.722Z,18.97
2023-03-08T05:33:51.807Z,18.90
2023-03-08T05:36:19.143Z,19.11
2023-03-08T05:38:46.682Z,18.98
2023-03-08T05:43:56.691Z,19.06
2023-03-08T05:46:26.142Z,18.46
2023-03-08T05:48:54.016Z,18.97
2023-03-08T05:51:21.478Z,19.11
2023-03-08T05:53:48.790Z,19.15
2023-03-08T05:56:30.320Z,18.63
2023-03-08T05:59:04.764Z,18.28
2023-03-08T06:01:32.078Z,18.86
2023-03-08T06:03:59.495Z,18.69
2023-03-08T06:06:26.761Z,18.18
2023-03-08T06:08:54.092Z,18.90
2023-03-08T06:11:21.457Z,19.03
2023-03-08T06:13:49.371Z,18.11
2023-03-08T06:16:16.696Z,18.36
2023-03-08T06:18:44.098Z,18.31
2023-03-08T06:21:11.357Z,18.51
2023-03-08T06:23:38.613Z,18.55
2023-03-08T06:26:05.911Z,18.63
2023-03-08T06:28:33.171Z,18.87
2023-03-08T06:31:00.610Z,18.72
2023-03-08T06:33:28.039Z,18.12
2023-03-08T06:35:55.331Z,18.38
2023-03-08T06:38:34.263Z,18.71
2023-03-08T06:41:01.614Z,18.70
2023-03-08T06:43:29.513Z,18.54
2023-03-08T06:45:58.598Z,17.68
2023-03-08T06:48:27.247Z,18.15
2023-03-08T06:50:57.376Z,18.65
2023-03-08T06:53:24.680Z,17.94
2023-03-08T06:55:55.007Z,18.45
2023-03-08T06:58:22.324Z,18.63
2023-03-08T07:00:50.604Z,18.33
2023-03-08T07:03:18.791Z,18.03
2023-03-08T07:05:46.085Z,18.44
2023-03-08T07:08:13.456Z,18.32
2023-03-08T07:10:41.567Z,18.05
2023-03-08T07:13:10.953Z,18.04
2023-03-08T07:15:38.331Z,18.59
2023-03-08T07:18:06.564Z,18.16
2023-03-08T07:20:34.211Z,17.81
2023-03-08T07:23:02.561Z,18.32
2023-03-08T07:25:30.006Z,17.86
2023-03-08T07:27:57.815Z,17.83
2023-03-08T07:30:34.676Z,18.44
2023-03-08T07:33:02.126Z,18.08
2023-03-08T07:35:30.166Z,18.43
2023-03-08T07:38:03.911Z,17.90
2023-03-08T07:40:31.364Z,17.81
2023-03-08T07:42:58.832Z,18.26
2023-03-08T07:45:33.682Z,17.65
2023-03-08T07:48:01.127Z,18.19
2023-03-08T07:50:28.620Z,17.81
2023-03-08T07:52:55.933Z,18.25
2023-03-08T07:55:23.279Z,18.21
2023-03-08T07:58:00.515Z,17.80
2023-03-08T08:00:35.167Z,17.84
2023-03-08T08:03:06.108Z,17.78
2023-03-08T08:05:37.849Z,17.47
2023-03-08T08:08:05.180Z,17.62
2023-03-08T08:10:43.705Z,18.40
2023-03-08T08:13:11.106Z,18.15
2023-03-08T08:15:38.499Z,17.92
2023-03-08T08:18:09.191Z,18.52
2023-03-08T08:20:36.932Z,17.91
2023-03-08T08:23:04.256Z,17.62
2023-03-08T08:25:31.571Z,17.82
2023-03-08T08:27:58.972Z,17.35
2023-03-08T08:30:29.488Z,17.31
2023-03-08T08:32:57.841Z,17.88
2023-03-08T08:35:40.857Z,17.95
2023-03-08T08:38:09.659Z,17.25
2023-03-08T08:43:33.043Z,18.26
2023-03-08T08:46:07.609Z,17.54
2023-03-08T08:48:38.995Z,17.53
2023-03-08T08:51:06.650Z,17.41
2023-03-08T08:53:34.049Z,17.69
2023-03-08T08:56:01.392Z,18.07
2023-03-08T08:58:32.564Z,17.89
2023-03-08T09:01:09.475Z,17.85
2023-03-08T09:03:36.855Z,17.21
2023-03-08T09:06:04.154Z,17.46
2023-03-08T09:08:31.492Z,17.86
2023-03-08T09:10:58.928Z,18.27
2023-03-08T09:16:10.817Z,17.59
2023-03-08T09:18:39.394Z,17.90
2023-03-08T09:21:06.752Z,17.60
2023-03-08T09:23:34.091Z,18.08
2023-03-08T09:26:02.652Z,18.15
2023-03-08T09:28:32.149Z,18.62
2023-03-08T09:30:59.986Z,18.10
2023-03-08T09:33:36.208Z,17.94
2023-03-08T09:36:03.696Z,18.41
2023-03-08T09:38:31.007Z,18.30
2023-03-08T09:40:58.411Z,18.48
2023-03-08T09:43:32.489Z,18.29
2023-03-08T09:45:59.891Z,18.27
2023-03-08T09:48:27.341Z,18.18
2023-03-08T09:50:54.692Z,18.24
2023-03-08T09:53:22.093Z,18.43
2023-03-08T09:55:54.487Z,18.43
2023-03-08T09:58:25.347Z,18.93
2023-03-08T10:03:43.838Z,18.53
2023-03-08T10:06:11.288Z,18.82
2023-03-08T10:08:38.642Z,18.14
2023-03-08T10:11:06.072Z,18.71
2023-03-08T10:13:33.499Z,18.94
2023-03-08T10:16:01.497Z,18.56
2023-03-08T10:18:28.795Z,19.05
2023-03-08T10:20:56.236Z,19.10
2023-03-08T10:23:23.522Z,19.28
2023-03-08T10:25:50.859Z,19.05
2023-03-08T10:28:18.277Z,18.70
2023-03-08T10:30:48.322Z,18.94
2023-03-08T10:33:15.667Z,19.19
2023-03-08T10:35:43.051Z,19.23
2023-03-08T10:38:10.356Z,19.00
2023-03-08T10:40:41.002Z,19.08
2023-03-08T10:43:08.530Z,19.28
2023-03-08T10:45:35.853Z,18.97
2023-03-08T10:48:04.205Z,18.99
2023-03-08T10:50:36.804Z,19.49
2023-03-08T10:53:04.321Z,19.17
2023-03-08T10:55:32.876Z,19.10
2023-03-08T10:58:00.180Z,19.62
2023-03-08T11:00:34.664Z,19.52
2023-03-08T11:03:02.018Z,19.04
2023-03-08T11:05:29.306Z,19.47
2023-03-08T11:07:56.646Z,18.98
2023-03-08T11:10:24.219Z,19.27
2023-03-08T11:12:53.442Z,18.79
2023-03-08T11:20:43.200Z,19.23
2023-03-08T11:23:10.665Z,18.96
2023-03-08T11:25:38.016Z,19.44
2023-03-08T11:28:05.341Z,19.20
2023-03-08T11:30:32.815Z,18.97
2023-03-08T11:33:00.334Z,18.56
2023-03-08T11:35:27.830Z,19.32
2023-03-08T11:37:56.572Z,18.81
2023-03-08T11:40:23.868Z,19.47
2023-03-08T11:43:08.576Z,18.80
2023-03-08T11:45:36.030Z,19.31
2023-03-08T11:48:03.339Z,19.05
2023-03-08T11:55:45.859Z,19.15
2023-03-08T12:00:48.483Z,19.24
2023-03-08T12:03:15.836Z,19.68
2023-03-08T12:05:49.635Z,18.86
2023-03-08T12:08:17.248Z,19.35
2023-03-08T12:13:25.273Z,19.78
2023-03-08T12:15:52.608Z,19.39
2023-03-08T12:18:27.146Z,19.79
2023-03-08T12:20:58.510Z,19.72
2023-03-08T12:23:28.049Z,19.60
2023-03-08T12:25:58.862Z,19.34
2023-03-08T12:28:28.843Z,19.24
2023-03-08T12:30:56.241Z,19.79
2023-03-08T12:33:23.702Z,19.11
2023-03-08T12:35:51.170Z,19.63
2023-03-08T12:38:27.448Z,19.15
2023-03-08T12:40:54.900Z,19.30
2023-03-08T12:43:22.362Z,19.37
2023-03-08T12:45:49.665Z,19.32
2023-03-08T12:48:17.072Z,19.80
2023-03-08T12:50:44.537Z,19.90
2023-03-08T12:53:11.874Z,19.62
2023-03-08T12:55:39.147Z,19.77
2023-03-08T12:58:06.511Z,19.55
2023-03-08T13:00:33.827Z,20.02
2023-03-08T13:03:03.200Z,19.85
2023-03-08T13:05:33.369Z,19.98
2023-03-08T13:08:00.673Z,19.70
2023-03-08T13:10:27.949Z,19.52
2023-03-08T13:12:55.310Z,19.28
2023-03-08T13:15:22.901Z,19.69
2023-03-08T13:17:50.188Z,19.35
2023-03-08T13:20:17.595Z,20.06
2023-03-08T13:22:44.949Z,19.24
2023-03-08T13:25:12.291Z,19.58
2023-03-08T13:27:39.864Z,19.67
2023-03-08T13:30:07.236Z,19.40
2023-03-08T13:32:34.746Z,19.70
2023-03-08T13:35:02.250Z,20.11
2023-03-08T13:40:04.896Z,19.99
2023-03-08T13:42:32.200Z,20.30
2023-03-08T13:44:59.481Z,19.79
2023-03-08T13:47:28.212Z,20.11
2023-03-08T13:49:56.648Z,20.11
2023-03-08T13:52:23.985Z,20.58
2023-03-08T13:54:51.326Z,20.25
2023-03-08T13:57:18.679Z,20.16
2023-03-08T13:59:46.294Z,21.02
2023-03-08T14:02:13.798Z,20.94
2023-03-08T14:04:41.198Z,20.61
2023-03-08T14:07:08.649Z,20.89
2023-03-08T14:09:39.811Z,20.61
2023-03-08T14:12:07.216Z,20.61
2023-03-08T14:14:34.603Z,21.03
2023-03-08T14:17:02.155Z,20.79
2023-03-08T14:19:31.020Z,20.62
2023-03-08T14:21:58.389Z,20.72
2023-03-08T14:24:25.724Z,20.86
2023-03-08T14:26:53.073Z,20.95
2023-03-08T14:48:21.784Z,20.67
2023-03-08T14:53:18.844Z,20.72
2023-03-08T14:55:54.765Z,20.63
2023-03-08T14:58:22.939Z,20.63
2023-03-08T15:11:38.743Z,21.44
2023-03-08T15:16:43.498Z,20.81
2023-03-08T15:19:11.354Z,20.81
2023-03-08T15:21:38.692Z,20.78
2023-03-08T15:24:06.233Z,20.86
2023-03-08T15:26:33.566Z,20.87
2023-03-08T15:29:00.960Z,20.87
2023-03-08T15:31:28.356Z,20.62
2023-03-08T15:33:57.282Z,21.02
2023-03-08T15:36:27.153Z,20.99
2023-03-08T15:41:37.080Z,20.58
2023-03-08T15:44:06.547Z,21.01
2023-03-08T15:46:33.901Z,20.72
2023-03-08T15:49:12.852Z,20.60
2023-03-08T15:51:41.245Z,20.69
2023-03-08T15:54:12.542Z,21.14
2023-03-08T16:04:38.828Z,20.77
2023-03-08T16:07:06.215Z,21.11
2023-03-08T16:09:33.556Z,21.01
2023-03-08T16:12:01.000Z,21.10
2023-03-08T16:14:51.509Z,20.77
2023-03-08T16:23:03.330Z,20.64
